createdAt,value
2023-01-18T00:07:25.673Z,9.95
2023-01-18T00:11:37.344Z,10.97
2023-01-18T00:20:03.630Z,13.68
2023-01-18T00:27:31.434Z,10.77
2023-01-18T00:31:35.006Z,12.67
2023-01-18T00:35:26.264Z,12.10
2023-01-18T00:39:13.909Z,12.15
2023-01-18T00:47:36.372Z,13.27
2023-01-18T01:03:40.359Z,15.85
2023-01-18T01:38:11.030Z,13.27
2023-01-18T01:42:19.393Z,14.45
2023-01-18T01:51:22.504Z,13.70
2023-01-18T01:55:20.307Z,11.70
2023-01-18T02:20:11.097Z,12.10
2023-01-18T02:34:20.377Z,10.98
2023-01-18T03:05:02.630Z,12.17
2023-01-18T03:09:07.972Z,11.35
2023-01-18T03:18:20.517Z,11.27
2023-01-18T03:36:04.724Z,14.32
2023-01-18T03:40:07.004Z,13.40
2023-01-18T03:44:19.560Z,15.33
2023-01-18T03:57:04.111Z,16.15
2023-01-18T04:01:08.248Z,18.83
2023-01-18T04:05:08.353Z,21.03
2023-01-18T04:13:15.883Z,14.18
2023-01-18T04:38:25.018Z,10.82
2023-01-18T04:42:25.257Z,12.57
2023-01-18T05:15:14.005Z,23.48
2023-01-18T05:24:14.869Z,10.52
2023-01-18T05:28:25.657Z,9.60
2023-01-18T05:36:13.076Z,12.85
2023-01-18T05:39:20.211Z,19.42
2023-01-18T05:42:24.710Z,22.38
2023-01-18T05:45:29.725Z,15.27
2023-01-18T05:48:34.326Z,30.10
2023-01-18T05:51:37.956Z,16.60
2023-01-18T05:54:43.603Z,18.75
2023-01-18T05:57:54.180Z,16.75
2023-01-18T06:00:59.258Z,14.20
2023-01-18T06:04:06.139Z,13.73
2023-01-18T06:07:11.324Z,10.90
2023-01-18T06:10:16.133Z,9.77
2023-01-18T06:13:20.423Z,11.38
2023-01-18T06:16:26.394Z,11.27
2023-01-18T06:19:35.865Z,10.07
2023-01-18T06:22:43.352Z,10.10
2023-01-18T06:25:47.359Z,12.95
2023-01-18T06:28:51.164Z,11.13
2023-01-18T06:31:54.344Z,13.43
2023-01-18T06:34:57.802Z,12.23
2023-01-18T06:38:02.355Z,14.88
2023-01-18T06:41:09.504Z,13.13
2023-01-18T06:44:16.578Z,15.05
2023-01-18T06:47:25.375Z,12.60
2023-01-18T06:50:33.458Z,14.13
2023-01-18T06:53:40.999Z,13.57
2023-01-18T06:56:48.497Z,14.85
2023-01-18T06:59:58.494Z,12.15
2023-01-18T07:03:05.761Z,15.77
2023-01-18T07:06:10.411Z,10.53
2023-01-18T07:09:15.519Z,10.82
2023-01-18T07:12:24.610Z,10.52
2023-01-18T07:15:30.734Z,11.32
2023-01-18T07:18:37.234Z,10.90
2023-01-18T07:21:40.821Z,9.83
2023-01-18T07:24:49.692Z,9.57
2023-01-18T07:27:59.114Z,17.08
2023-01-18T07:31:08.129Z,13.05
2023-01-18T07:34:16.683Z,10.83
2023-01-18T07:37:21.542Z,25.37
2023-01-18T07:40:25.531Z,25.83
2023-01-18T07:43:30.783Z,21.77
2023-01-18T07:46:35.158Z,17.25
2023-01-18T07:49:41.167Z,8.17
2023-01-18T07:52:46.897Z,12.57
2023-01-18T07:55:52.128Z,9.07
2023-01-18T07:58:58.107Z,9.75
2023-01-18T08:02:05.535Z,11.30
2023-01-18T08:05:15.577Z,11.83
2023-01-18T08:08:23.156Z,8.70
2023-01-18T08:11:28.172Z,11.70
2023-01-18T08:14:34.664Z,9.57
2023-01-18T08:17:41.570Z,9.23
2023-01-18T08:20:49.754Z,8.73
2023-01-18T08:23:56.476Z,7.97
2023-01-18T08:27:02.724Z,7.95
2023-01-18T08:30:10.103Z,6.30
2023-01-18T08:33:16.144Z,6.57
2023-01-18T08:36:23.120Z,7.43
2023-01-18T08:39:28.948Z,6.93
2023-01-18T08:42:33.663Z,7.95
2023-01-18T08:45:39.118Z,8.13
2023-01-18T08:48:44.625Z,7.55
2023-01-18T08:51:50.819Z,6.80
2023-01-18T08:54:59.931Z,8.27
2023-01-18T08:58:07.153Z,9.20
2023-01-18T09:01:15.405Z,9.82
2023-01-18T09:04:22.024Z,8.73
2023-01-18T09:07:27.361Z,10.37
2023-01-18T09:10:36.735Z,12.47
2023-01-18T09:13:59.312Z,18.60
2023-01-18T09:17:07.405Z,10.23
2023-01-18T09:20:18.659Z,7.22
2023-01-18T09:23:23.783Z,10.97
2023-01-18T09:26:28.458Z,7.33
2023-01-18T09:29:33.270Z,4.97
2023-01-18T09:32:42.443Z,6.20
2023-01-18T09:35:50.322Z,5.63
2023-01-18T09:38:59.523Z,5.97
2023-01-18T09:42:05.809Z,7.57
2023-01-18T09:45:24.440Z,5.60
2023-01-18T09:48:33.457Z,4.38
2023-01-18T09:52:09.233Z,5.35
2023-01-18T09:55:34.841Z,5.47
2023-01-18T09:59:03.005Z,5.37
2023-01-18T10:02:38.556Z,6.03
2023-01-18T10:06:09.293Z,3.97
2023-01-18T10:09:16.392Z,4.25
2023-01-18T10:12:36.352Z,4.53
2023-01-18T10:15:44.468Z,4.40
2023-01-18T10:18:53.826Z,4.20
2023-01-18T10:22:07.368Z,4.55
2023-01-18T10:25:43.367Z,7.28
2023-01-18T10:28:59.768Z,5.13
2023-01-18T10:32:20.288Z,4.30
2023-01-18T10:35:34.255Z,5.30
2023-01-18T10:38:41.476Z,5.20
2023-01-18T10:41:45.634Z,5.10
2023-01-18T10:44:48.826Z,7.57
2023-01-18T10:47:54.132Z,6.90
2023-01-18T10:51:08.203Z,7.43
2023-01-18T10:54:27.119Z,6.25
2023-01-18T10:57:31.478Z,6.55
2023-01-18T11:00:36.043Z,13.13
2023-01-18T11:03:46.600Z,7.83
2023-01-18T11:06:52.844Z,7.20
2023-01-18T11:10:02.046Z,7.68
2023-01-18T11:13:27.898Z,5.75
2023-01-18T11:16:31.647Z,5.97
2023-01-18T11:19:36.073Z,7.13
2023-01-18T11:22:53.816Z,8.00
2023-01-18T11:26:03.037Z,5.95
2023-01-18T11:29:09.554Z,10.10
2023-01-18T11:32:27.206Z,7.70
2023-01-18T11:35:37.171Z,5.93
2023-01-18T11:38:42.326Z,5.35
2023-01-18T11:41:47.052Z,5.63
2023-01-18T11:44:55.159Z,5.07
2023-01-18T11:48:20.441Z,4.77
2023-01-18T11:51:46.356Z,3.67
2023-01-18T11:55:01.047Z,4.55
2023-01-18T11:58:18.281Z,7.05
2023-01-18T12:01:37.530Z,5.90
2023-01-18T12:05:05.842Z,6.53
2023-01-18T12:08:40.314Z,5.27
2023-01-18T12:12:19.745Z,6.40
2023-01-18T12:15:50.593Z,7.72
2023-01-18T12:19:14.292Z,6.55
2023-01-18T12:22:47.723Z,7.47
2023-01-18T12:26:28.827Z,7.40
2023-01-18T12:29:47.614Z,5.95
2023-01-18T12:33:43.528Z,7.70
2023-01-18T12:37:23.431Z,7.30
2023-01-18T12:40:41.364Z,5.97
2023-01-18T12:43:58.025Z,5.87
2023-01-18T12:47:19.836Z,7.90
2023-01-18T12:50:31.347Z,6.63
2023-01-18T12:53:46.434Z,6.40
2023-01-18T12:56:54.130Z,6.17
2023-01-18T13:00:07.787Z,20.20
2023-01-18T13:03:22.011Z,7.53
2023-01-18T13:06:28.179Z,6.15
2023-01-18T13:09:36.696Z,4.90
2023-01-18T13:12:45.569Z,17.70
2023-01-18T13:15:57.400Z,11.67
2023-01-18T13:19:07.944Z,8.48
2023-01-18T13:22:14.421Z,9.88
2023-01-18T13:25:29.966Z,11.65
2023-01-18T13:28:34.249Z,11.57
2023-01-18T13:31:39.114Z,11.03
2023-01-18T13:34:48.889Z,16.35
2023-01-18T13:38:03.620Z,14.32
2023-01-18T13:41:13.462Z,13.48
2023-01-18T13:44:33.021Z,9.30
2023-01-18T13:47:48.444Z,8.07
2023-01-18T13:50:53.427Z,11.07
2023-01-18T13:53:57.480Z,8.13
2023-01-18T13:57:06.395Z,8.38
2023-01-18T14:00:25.165Z,16.60
2023-01-18T14:03:45.424Z,17.63
2023-01-18T14:06:52.076Z,19.30
2023-01-18T14:10:03.853Z,13.80
2023-01-18T14:13:14.249Z,15.82
2023-01-18T14:16:27.732Z,13.40
2023-01-18T14:19:36.171Z,13.20
2023-01-18T14:22:46.574Z,13.70
2023-01-18T14:26:01.147Z,15.02
2023-01-18T14:29:24.676Z,14.88
2023-01-18T14:32:34.297Z,14.17
2023-01-18T14:35:41.711Z,18.57
2023-01-18T14:38:48.358Z,16.60
2023-01-18T14:41:55.739Z,17.00
2023-01-18T14:44:59.377Z,17.23
2023-01-18T14:48:08.600Z,16.93
2023-01-18T14:51:20.849Z,14.17
2023-01-18T14:54:26.655Z,12.70
2023-01-18T14:57:33.600Z,18.20
2023-01-18T15:01:00.076Z,18.55
2023-01-18T15:04:28.835Z,28.80
2023-01-18T15:07:41.482Z,23.10
2023-01-18T15:10:52.654Z,41.28
2023-01-18T15:14:06.104Z,54.13
2023-01-18T15:17:35.715Z,50.55
2023-01-18T15:21:25.134Z,55.80
2023-01-18T15:24:42.503Z,43.20
2023-01-18T15:27:56.698Z,71.28
2023-01-18T15:31:22.639Z,42.10
2023-01-18T15:34:44.457Z,53.92
2023-01-18T15:38:03.082Z,11.93
2023-01-18T15:41:16.362Z,10.27
2023-01-18T15:45:03.181Z,7.70
2023-01-18T15:48:27.163Z,5.10
2023-01-18T15:52:01.635Z,13.90
2023-01-18T15:55:48.105Z,12.10
2023-01-18T15:59:25.517Z,16.03
2023-01-18T16:02:53.595Z,4.18
2023-01-18T16:06:38.755Z,10.10
2023-01-18T16:10:12.227Z,6.40
2023-01-18T16:14:04.487Z,11.50
2023-01-18T16:17:37.377Z,17.53
2023-01-18T16:21:05.643Z,9.98
2023-01-18T16:24:50.353Z,21.25
2023-01-18T16:28:01.839Z,12.13
2023-01-18T16:31:15.469Z,18.47
2023-01-18T16:34:28.403Z,21.90
2023-01-18T16:37:51.404Z,18.75
2023-01-18T16:41:20.437Z,29.27
2023-01-18T16:44:30.882Z,19.15
2023-01-18T16:48:06.893Z,14.10
2023-01-18T16:51:37.219Z,9.73
2023-01-18T16:54:51.425Z,13.65
2023-01-18T16:58:12.736Z,13.25
2023-01-18T17:01:43.576Z,18.38
2023-01-18T17:05:13.804Z,17.67
2023-01-18T17:09:08.868Z,12.03
2023-01-18T17:12:25.862Z,12.20
2023-01-18T17:15:33.938Z,13.20
2023-01-18T17:18:39.635Z,18.20
2023-01-18T17:22:23.785Z,24.33
2023-01-18T17:26:20.432Z,12.70
2023-01-18T17:37:22.741Z,20.05
2023-01-18T17:41:19.649Z,22.73
2023-01-18T17:45:12.463Z,33.87
2023-01-18T17:49:13.092Z,46.28
2023-01-18T17:53:00.100Z,45.13
2023-01-18T17:56:31.323Z,33.40
2023-01-18T18:00:05.419Z,27.93
2023-01-18T18:07:39.198Z,24.52
2023-01-18T18:20:15.782Z,7.53
2023-01-18T18:33:17.099Z,7.55
2023-01-18T18:37:11.036Z,7.35
2023-01-18T18:55:10.533Z,6.80
2023-01-18T19:16:26.193Z,24.65
2023-01-18T19:45:45.341Z,27.00
2023-01-18T19:49:50.599Z,25.77
2023-01-18T19:54:14.039Z,11.80
2023-01-18T19:58:26.227Z,8.48
2023-01-18T20:02:26.296Z,4.82
2023-01-18T20:11:24.912Z,6.23
2023-01-18T20:15:23.908Z,8.45
2023-01-18T20:19:32.617Z,6.38
2023-01-18T20:36:26.581Z,7.85
2023-01-18T20:40:24.786Z,6.43
2023-01-18T20:44:40.492Z,6.97
2023-01-18T21:21:12.914Z,7.20
2023-01-18T21:25:23.083Z,6.15
2023-01-18T21:38:27.887Z,8.07
2023-01-18T21:56:07.131Z,4.97
2023-01-18T22:00:14.959Z,5.57
2023-01-18T22:18:17.576Z,7.97
2023-01-18T22:27:07.099Z,7.75
2023-01-18T22:35:36.917Z,11.33
2023-01-18T22:48:25.439Z,8.57
2023-01-18T23:00:35.365Z,8.50
2023-01-18T23:04:21.660Z,7.03
2023-01-18T23:08:14.743Z,6.82
2023-01-18T23:12:24.394Z,6.57
2023-01-18T23:21:11.083Z,8.77
2023-01-18T23:25:15.504Z,10.88
2023-01-18T23:29:45.650Z,15.68
2023-01-18T23:42:05.380Z,20.23
2023-01-18T23:46:07.585Z,22.65
2023-01-18T23:50:19.235Z,21.77
